createdAt,value
2019-03-29T00:03:34.332Z,99522.00
2019-03-29T00:07:39.960Z,99523.00
2019-03-29T00:11:38.931Z,99514.00
2019-03-29T00:15:40.072Z,99513.00
2019-03-29T00:19:40.939Z,99522.00
2019-03-29T00:23:41.803Z,99529.00
2019-03-29T00:27:42.709Z,99521.00
2019-03-29T00:31:43.598Z,99524.00
2019-03-29T00:35:44.438Z,99527.00
2019-03-29T00:39:45.311Z,99527.00
2019-03-29T00:43:46.303Z,99527.00
2019-03-29T00:47:47.173Z,99518.00
2019-03-29T00:51:48.147Z,99523.00
2019-03-29T00:55:49.028Z,99514.00
2019-03-29T00:59:49.885Z,99520.00
2019-03-29T01:03:52.892Z,99516.00
2019-03-29T01:08:06.784Z,99520.00
2019-03-29T01:11:56.838Z,99510.00
2019-03-29T01:15:57.866Z,99510.00
2019-03-29T01:19:58.737Z,99506.00
2019-03-29T01:23:59.646Z,99503.00
2019-03-29T01:28:00.543Z,99502.00
2019-03-29T01:32:01.521Z,99498.00
2019-03-29T01:36:02.523Z,99499.00
2019-03-29T01:40:04.401Z,99490.00
2019-03-29T01:44:05.351Z,99486.00
2019-03-29T01:48:06.403Z,99491.00
2019-03-29T01:52:07.281Z,99483.00
2019-03-29T01:56:08.190Z,99490.00
2019-03-29T02:00:12.888Z,99487.00
2019-03-29T02:04:13.799Z,99487.00
2019-03-29T02:08:14.682Z,99487.00
2019-03-29T02:12:15.673Z,99481.00
2019-03-29T02:16:16.675Z,99488.00
2019-03-29T02:20:17.882Z,99480.00
2019-03-29T02:24:18.929Z,99484.00
2019-03-29T02:28:19.805Z,99471.00
2019-03-29T02:32:20.682Z,99463.00
2019-03-29T02:36:21.687Z,99477.00
2019-03-29T02:40:23.207Z,99465.00
2019-03-29T02:44:25.093Z,99460.00
2019-03-29T02:48:26.292Z,99458.00
2019-03-29T02:52:27.284Z,99457.00
2019-03-29T02:56:28.251Z,99448.00
2019-03-29T03:00:29.653Z,99450.00
2019-03-29T03:04:30.676Z,99440.00
2019-03-29T03:08:33.108Z,99448.00
2019-03-29T03:12:34.494Z,99443.00
2019-03-29T03:16:35.418Z,99438.00
2019-03-29T03:20:36.300Z,99444.00
2019-03-29T03:24:37.287Z,99435.00
2019-03-29T03:28:39.570Z,99435.00
2019-03-29T03:32:40.777Z,99436.00
2019-03-29T03:36:41.818Z,99438.00
2019-03-29T03:40:42.792Z,99438.00
2019-03-29T03:44:43.627Z,99431.00
2019-03-29T03:48:44.521Z,99439.00
2019-03-29T03:52:45.404Z,99438.00
2019-03-29T03:56:49.387Z,99438.00
2019-03-29T04:00:55.826Z,99436.00
2019-03-29T04:04:56.758Z,99436.00
2019-03-29T04:08:57.642Z,99440.00
2019-03-29T04:12:58.663Z,99430.00
2019-03-29T04:16:59.540Z,99429.00
2019-03-29T04:21:00.460Z,99425.00
2019-03-29T04:25:01.419Z,99428.00
2019-03-29T04:29:04.877Z,99426.00
2019-03-29T04:33:05.373Z,99427.00
2019-03-29T04:37:06.300Z,99422.00
2019-03-29T04:41:07.181Z,99428.00
2019-03-29T04:45:08.457Z,99428.00
2019-03-29T04:49:09.454Z,99422.00
2019-03-29T04:53:10.379Z,99415.00
2019-03-29T04:57:11.251Z,99422.00
2019-03-29T05:01:17.153Z,99422.00
2019-03-29T05:05:16.461Z,99424.00
2019-03-29T05:09:17.590Z,99412.00
2019-03-29T05:13:18.512Z,99420.00
2019-03-29T05:17:19.952Z,99425.00
2019-03-29T05:21:22.994Z,99419.00
2019-03-29T05:25:24.354Z,99418.00
2019-03-29T05:29:25.365Z,99411.00
2019-03-29T05:33:26.269Z,99408.00
2019-03-29T05:37:27.164Z,99425.00
2019-03-29T05:41:28.060Z,99423.00
2019-03-29T05:45:28.986Z,99416.00
2019-03-29T05:49:29.963Z,99423.00
2019-03-29T05:53:30.850Z,99418.00
2019-03-29T05:57:31.740Z,99419.00
2019-03-29T06:01:32.761Z,99413.00
2019-03-29T06:05:33.761Z,99415.00
2019-03-29T06:09:35.063Z,99422.00
2019-03-29T06:13:36.229Z,99415.00
2019-03-29T06:17:48.081Z,99416.00
2019-03-29T06:21:40.001Z,99413.00
2019-03-29T06:25:41.185Z,99414.00
2019-03-29T06:29:43.094Z,99418.00
2019-03-29T06:33:44.680Z,99419.00
2019-03-29T06:37:46.440Z,99406.00
2019-03-29T06:41:47.328Z,99400.00
2019-03-29T06:45:48.497Z,99401.00
2019-03-29T06:49:49.611Z,99409.00
2019-03-29T06:53:52.646Z,99399.00
2019-03-29T06:57:53.260Z,99402.00
2019-03-29T07:01:54.168Z,99400.00
2019-03-29T07:05:55.159Z,99402.00
2019-03-29T07:09:56.215Z,99402.00
2019-03-29T07:13:58.129Z,99405.00
2019-03-29T07:17:59.249Z,99404.00
2019-03-29T07:22:00.164Z,99405.00
2019-03-29T07:26:01.432Z,99403.00
2019-03-29T07:30:04.484Z,99395.00
2019-03-29T07:34:05.319Z,99392.00
2019-03-29T07:38:06.198Z,99389.00
2019-03-29T07:42:07.108Z,99401.00
2019-03-29T07:46:08.031Z,99403.00
2019-03-29T07:50:09.788Z,99400.00
2019-03-29T07:54:10.791Z,99401.00
2019-03-29T07:58:11.688Z,99397.00
2019-03-29T08:02:12.757Z,99393.00
2019-03-29T08:06:13.664Z,99406.00
2019-03-29T08:10:25.915Z,99395.00
2019-03-29T08:14:17.408Z,99403.00
2019-03-29T08:18:18.389Z,99399.00
2019-03-29T08:22:19.508Z,99394.00
2019-03-29T08:26:20.937Z,99407.00
2019-03-29T08:30:21.883Z,99404.00
2019-03-29T08:34:22.827Z,99404.00
2019-03-29T08:38:23.709Z,99409.00
2019-03-29T08:42:24.708Z,99399.00
2019-03-29T08:46:25.965Z,99397.00
2019-03-29T08:50:26.935Z,99393.00
2019-03-29T08:54:27.796Z,99387.00
2019-03-29T08:58:28.684Z,99388.00
2019-03-29T09:02:30.208Z,99388.00
2019-03-29T09:06:31.382Z,99386.00
2019-03-29T09:10:32.258Z,99388.00
2019-03-29T09:14:33.138Z,99384.00
2019-03-29T09:18:34.055Z,99375.00
2019-03-29T09:22:35.053Z,99368.00
2019-03-29T09:26:35.998Z,99375.00
2019-03-29T09:30:37.029Z,99371.00
2019-03-29T09:34:37.910Z,99363.00
2019-03-29T09:38:38.817Z,99360.00
2019-03-29T09:42:39.952Z,99365.00
2019-03-29T09:46:40.929Z,99359.00
2019-03-29T09:50:41.924Z,99356.00
2019-03-29T09:54:42.931Z,99355.00
2019-03-29T09:58:45.184Z,99354.00
2019-03-29T10:02:46.490Z,99355.00
2019-03-29T10:06:47.394Z,99354.00
2019-03-29T10:10:48.273Z,99338.00
2019-03-29T10:14:49.377Z,99347.00
2019-03-29T10:18:50.291Z,99339.00
2019-03-29T10:22:51.225Z,99344.00
2019-03-29T10:26:52.139Z,99336.00
2019-03-29T10:30:53.034Z,99337.00
2019-03-29T10:34:54.030Z,99333.00
2019-03-29T10:38:55.034Z,99324.00
2019-03-29T10:42:58.024Z,99321.00
2019-03-29T10:46:58.819Z,99321.00
2019-03-29T10:50:59.717Z,99306.00
2019-03-29T10:55:00.584Z,99310.00
2019-03-29T10:59:01.703Z,99311.00
2019-03-29T11:03:03.283Z,99316.00
2019-03-29T11:07:04.535Z,99309.00
2019-03-29T11:11:05.599Z,99299.00
2019-03-29T11:15:07.003Z,99289.00
2019-03-29T11:19:08.207Z,99293.00
2019-03-29T11:23:09.212Z,99285.00
2019-03-29T11:27:10.079Z,99282.00
2019-03-29T11:31:11.036Z,99280.00
2019-03-29T11:35:12.060Z,99271.00
2019-03-29T11:39:13.655Z,99273.00
2019-03-29T11:43:26.001Z,99274.00
2019-03-29T11:47:17.556Z,99270.00
2019-03-29T11:51:19.885Z,99271.00
2019-03-29T11:55:21.557Z,99261.00
2019-03-29T11:59:22.572Z,99264.00
2019-03-29T12:03:23.438Z,99243.00
2019-03-29T12:07:24.421Z,99244.00
2019-03-29T12:11:25.599Z,99243.00
2019-03-29T12:15:26.648Z,99242.00
2019-03-29T12:19:27.697Z,99242.00
2019-03-29T12:23:28.582Z,99224.00
2019-03-29T12:27:29.479Z,99226.00
2019-03-29T12:31:30.492Z,99217.00
2019-03-29T12:35:31.492Z,99213.00
2019-03-29T12:39:32.359Z,99209.00
2019-03-29T12:43:33.250Z,99195.00
2019-03-29T12:47:34.348Z,99198.00
2019-03-29T12:51:35.418Z,99187.00
2019-03-29T12:55:36.792Z,99189.00
2019-03-29T12:59:37.947Z,99189.00
2019-03-29T13:03:39.234Z,99180.00
2019-03-29T13:07:41.673Z,99175.00
2019-03-29T13:11:42.772Z,99173.00
2019-03-29T13:15:43.836Z,99161.00
2019-03-29T13:19:44.807Z,99147.00
2019-03-29T13:23:45.803Z,99162.00
2019-03-29T13:27:46.790Z,99150.00
2019-03-29T13:31:47.657Z,99145.00
2019-03-29T13:35:48.680Z,99139.00
2019-03-29T13:39:49.539Z,99138.00
2019-03-29T13:43:50.425Z,99129.00
2019-03-29T13:47:51.350Z,99130.00
2019-03-29T13:51:52.281Z,99128.00
2019-03-29T13:55:53.178Z,99116.00
2019-03-29T13:59:54.066Z,99112.00
2019-03-29T14:03:54.968Z,99109.00
2019-03-29T14:07:56.869Z,99106.00
2019-03-29T14:11:57.967Z,99103.00
2019-03-29T14:15:59.024Z,99098.00
2019-03-29T14:20:00.388Z,99090.00
2019-03-29T14:24:01.379Z,99093.00
2019-03-29T14:28:03.623Z,99072.00
2019-03-29T14:32:04.642Z,99076.00
2019-03-29T14:36:05.522Z,99070.00
2019-03-29T14:40:08.163Z,99064.00
2019-03-29T14:44:09.674Z,99059.00
2019-03-29T14:48:10.581Z,99052.00
2019-03-29T14:52:11.488Z,99044.00
2019-03-29T14:56:12.464Z,99049.00
2019-03-29T15:00:13.805Z,99033.00
2019-03-29T15:04:15.426Z,99024.00
2019-03-29T15:08:16.298Z,99030.00
2019-03-29T15:12:17.491Z,99014.00
2019-03-29T15:16:18.587Z,99014.00
2019-03-29T15:20:19.478Z,99004.00
2019-03-29T15:24:20.476Z,99009.00
2019-03-29T15:28:21.471Z,99013.00
2019-03-29T15:32:22.382Z,98994.00
2019-03-29T15:36:23.411Z,98996.00
2019-03-29T15:40:24.521Z,98985.00
2019-03-29T15:44:25.536Z,98984.00
2019-03-29T15:48:26.580Z,98982.00
2019-03-29T15:52:27.504Z,98978.00
2019-03-29T15:56:28.483Z,98980.00
2019-03-29T16:00:29.510Z,98983.00
2019-03-29T16:04:30.384Z,98970.00
2019-03-29T16:08:31.487Z,98977.00
2019-03-29T16:12:32.406Z,98980.00
2019-03-29T16:16:33.320Z,98980.00
2019-03-29T16:20:34.392Z,98976.00
2019-03-29T16:24:35.278Z,98977.00
2019-03-29T16:28:36.151Z,98973.00
2019-03-29T16:32:37.655Z,98972.00
2019-03-29T16:36:38.870Z,98969.00
2019-03-29T16:40:40.217Z,98968.00
2019-03-29T16:44:41.149Z,98967.00
2019-03-29T16:48:42.052Z,98969.00
2019-03-29T16:52:42.922Z,98963.00
2019-03-29T16:56:43.799Z,98963.00
2019-03-29T17:00:44.736Z,98968.00
2019-03-29T17:04:45.873Z,98966.00
2019-03-29T17:08:48.956Z,98963.00
2019-03-29T17:12:52.281Z,98956.00
2019-03-29T17:16:53.093Z,98956.00
2019-03-29T17:20:54.339Z,98947.00
2019-03-29T17:24:57.256Z,98953.00
2019-03-29T17:28:58.300Z,98956.00
2019-03-29T17:32:59.169Z,98953.00
2019-03-29T17:37:00.381Z,98954.00
2019-03-29T17:41:01.364Z,98952.00
2019-03-29T17:45:04.868Z,98945.00
2019-03-29T17:49:05.784Z,98955.00
2019-03-29T17:53:06.648Z,98962.00
2019-03-29T17:57:07.770Z,98958.00
2019-03-29T18:01:08.927Z,98958.00
2019-03-29T18:05:10.016Z,98968.00
2019-03-29T18:09:11.119Z,98961.00
2019-03-29T18:13:12.011Z,98972.00
2019-03-29T18:17:12.987Z,98964.00
2019-03-29T18:21:13.968Z,98963.00
2019-03-29T18:25:15.314Z,98969.00
2019-03-29T18:29:16.263Z,98967.00
2019-03-29T18:33:18.499Z,98954.00
2019-03-29T18:37:20.550Z,98955.00
2019-03-29T18:41:21.455Z,98968.00
2019-03-29T18:45:22.434Z,98947.00
2019-03-29T18:49:23.404Z,98952.00
2019-03-29T18:53:24.400Z,98938.00
2019-03-29T18:57:25.363Z,98943.00
2019-03-29T19:01:26.554Z,98943.00
2019-03-29T19:05:28.032Z,98942.00
2019-03-29T19:09:31.604Z,98950.00
2019-03-29T19:13:31.703Z,98945.00
2019-03-29T19:17:32.673Z,98949.00
2019-03-29T19:21:33.771Z,98939.00
2019-03-29T19:25:34.815Z,98941.00
2019-03-29T19:29:35.700Z,98927.00
2019-03-29T19:33:36.723Z,98942.00
2019-03-29T19:37:37.564Z,98944.00
2019-03-29T19:41:38.678Z,98941.00
2019-03-29T19:45:39.767Z,98936.00
2019-03-29T19:49:40.674Z,98932.00
2019-03-29T19:53:41.796Z,98930.00
2019-03-29T19:57:46.259Z,98925.00
2019-03-29T20:01:45.915Z,98922.00
2019-03-29T20:05:46.797Z,98915.00
2019-03-29T20:09:47.858Z,98922.00
2019-03-29T20:13:48.728Z,98920.00
2019-03-29T20:17:49.971Z,98921.00
2019-03-29T20:21:50.975Z,98924.00
2019-03-29T20:25:51.879Z,98924.00
2019-03-29T20:29:52.865Z,98916.00
2019-03-29T20:33:53.771Z,98918.00
2019-03-29T20:37:54.783Z,98913.00
2019-03-29T20:41:55.801Z,98895.00
2019-03-29T20:45:56.831Z,98903.00
2019-03-29T20:49:57.808Z,98903.00
2019-03-29T20:53:58.744Z,98906.00
2019-03-29T20:57:59.654Z,98902.00
2019-03-29T21:02:00.567Z,98899.00
2019-03-29T21:06:01.448Z,98891.00
2019-03-29T21:10:06.527Z,98892.00
2019-03-29T21:14:07.530Z,98892.00
2019-03-29T21:18:08.523Z,98887.00
2019-03-29T21:22:09.436Z,98893.00
2019-03-29T21:26:10.316Z,98898.00
2019-03-29T21:30:13.448Z,98889.00
2019-03-29T21:34:14.357Z,98885.00
2019-03-29T21:38:15.349Z,98885.00
2019-03-29T21:42:16.213Z,98879.00
2019-03-29T21:46:17.213Z,98892.00
2019-03-29T21:50:18.318Z,98876.00
2019-03-29T21:54:19.211Z,98876.00
2019-03-29T21:58:20.092Z,98879.00
2019-03-29T22:02:21.569Z,98872.00
2019-03-29T22:06:22.733Z,98865.00
2019-03-29T22:10:24.014Z,98868.00
2019-03-29T22:14:24.923Z,98865.00
2019-03-29T22:18:37.318Z,98860.00
2019-03-29T22:22:28.664Z,98854.00
2019-03-29T22:26:29.655Z,98855.00
2019-03-29T22:30:30.661Z,98846.00
2019-03-29T22:34:31.552Z,98845.00
2019-03-29T22:38:32.388Z,98842.00
2019-03-29T22:42:33.295Z,98846.00
2019-03-29T22:46:34.263Z,98839.00
2019-03-29T22:50:35.266Z,98834.00
2019-03-29T22:54:36.103Z,98831.00
2019-03-29T22:58:37.025Z,98827.00
2019-03-29T23:02:38.263Z,98824.00
2019-03-29T23:06:39.166Z,98826.00
2019-03-29T23:10:40.153Z,98825.00
2019-03-29T23:14:41.062Z,98806.00
2019-03-29T23:18:42.087Z,98807.00
2019-03-29T23:22:43.009Z,98804.00
2019-03-29T23:26:43.893Z,98803.00
2019-03-29T23:30:44.847Z,98798.00
2019-03-29T23:34:45.729Z,98788.00
2019-03-29T23:38:46.607Z,98778.00
2019-03-29T23:42:47.538Z,98776.00
2019-03-29T23:46:48.573Z,98767.00
2019-03-29T23:50:49.622Z,98775.00
2019-03-29T23:54:50.583Z,98784.00
2019-03-29T23:58:51.459Z,98771.00
